CheckWX is a tool to help pilots better visualize weather data.  It is not intended as a substitute for an official pre-flight weather briefing.

16:41:26 UTC

EBBR METAR
Brussels Airport
Brussels, Belgium
Current

21 mins ago

EBBR 221620Z 23004KT 200V280 CAVOK 28/15 Q1023 NOSIG
Observed
Jul-22 @ 16:20 UTC
Wind
  • 230° at 4 KTS
Visibility
10,000+ meters
Flight Rules
VFR
Cloud Levels
  • Clear skies
Temperature
28°C / 82°F
Dewpoint
15°C / 59°F
Heat Index
28°C / 82°F
Humidity
45%
Altimeter
30.21" Hg
Pressure
1022.92 hPa
Previous

51 mins ago

EBBR 221550Z 26004KT 210V330 CAVOK 28/15 Q1023 NOSIG
Observed
Jul-22 @ 15:50 UTC
Wind
  • 260° at 4 KTS
Visibility
10,000+ meters
Flight Rules
VFR
Cloud Levels
  • Clear skies
Temperature
28°C / 82°F
Dewpoint
15°C / 59°F
Heat Index
28°C / 82°F
Humidity
45%
Altimeter
30.21" Hg
Pressure
1022.92 hPa
Previous

1 hour ago

EBBR 221520Z 25005KT 210V290 CAVOK 28/14 Q1023 NOSIG
Observed
Jul-22 @ 15:20 UTC
Wind
  • 250° at 5 KTS
Visibility
10,000+ meters
Flight Rules
VFR
Cloud Levels
  • Clear skies
Temperature
28°C / 82°F
Dewpoint
14°C / 57°F
Heat Index
28°C / 82°F
Humidity
42%
Altimeter
30.21" Hg
Pressure
1022.92 hPa